Aeroporto :
LOGIN :

Iscrizione | Disclaimer

   EN    FR    IT 

 










Sommario :    VFR   VFR Marginale   IFR   IFR Intensivo   IFR Molto Intensivo
Visibilità : 
Base nubi : 
>= 8 km
>= 3000ft
5 / 8 km
1000 / 3000 ft
1500m / 5 km
500 / 1000 ft
800 / 1500m
200 / 500 ft
< 800m
< 200 ft
Simboli :   Temporali  Nebbia  Neve Forte  Precipitazioni Forti  Vento > 20 kt
SIGMETs :   Varie  Temporali  Ghiacco  Turbolenza  Onda orograficha  Ceneri Vulcaniche






- Altitudine del aeroporto : 1058 ft
- Codice IATA : SCN


EDDR - Saarbrücken

ULTIMO METAR :
  • 281250Z 25020KT 230V290 9999 FEW008 SCT023 BKN032 03/00 Q1001 TEMPO 4000 SHRA

METARs OBSOLETI :
  • 281220Z 26024G38KT 9999 -SHRA FEW008 SCT013CB BKN030 03/01 Q1001 RESHGS TEMPO 4000 SHRA
  • 281150Z 24016KT 9999 FEW009 SCT014TCU 04/01 Q1000 TEMPO 25020G30KT 4000 SHRA
  • 281120Z 25014KT 9999 FEW008 SCT036 03/02 Q1000 TEMPO 25020G30KT 4000 SHRA
  • 281050Z VRB16KT 9999 -SHRA FEW005 SCT013CB 02/01 Q1000 RESHSN TEMPO 25020G35KT BKN013
  • 281020Z 27021G36KT 240V300 1100 R27/1900N +SHSNRA BKN007 BKN012CB 01/01 Q1000 TEMPO 25025G45KT TSSNRA

TAF TAF EDDR
Valido dal 28 a 12 ore il 29 a 12 ore UTC


281100Z 2812/2912 23020G30KT 9999 BKN020
TEMPO 2812/2816 3000 SHRA BKN012CB
PROB30
TEMPO 2812/2816 24025G45KT 2000 TSRASN BKN008CB
PROB30
TEMPO 2816/2903 2000 -SHRASN BKN008CB
BECMG 2816/2819 24013KT
BECMG 2900/2903 BKN014
PROB30
TEMPO 2909/2912 4000 -SHRASN BKN014CB



MetMap, La meteo Aeronautica in un colpo d'occhio ! - Copyright ORBIFLY Dicembre 2007 - Disclaimer

ORBIFLY MET'MAP TEAM :

Programmazione e sviluppo : Alexandra Zaïnal
Concezione : Baudouin d'Aumeries
Aiuto per la programmazione : Marc-Olivier Méhu
Supporto tecnico e logistico : Manuel Goepfert
Aiuto per la traduzione : Arnaldo La Scala

Contatto : metmap@orbifly.com




FONTI E CREDITI :

   NOAA